sensor_id;sensor_type;location;lat;lon;timestamp;temperature;humidity
20845;DHT22;10583;49.084;8.646;2023-08-20T00:00:24;22.80;99.90
20845;DHT22;10583;49.084;8.646;2023-08-20T00:03:02;22.80;99.90
20845;DHT22;10583;49.084;8.646;2023-08-20T00:05:35;22.80;99.90
20845;DHT22;10583;49.084;8.646;2023-08-20T00:08:04;22.80;99.90
20845;DHT22;10583;49.084;8.646;2023-08-20T00:10:32;22.80;99.90
20845;DHT22;10583;49.084;8.646;2023-08-20T00:13:00;22.80;99.90
20845;DHT22;10583;49.084;8.646;2023-08-20T00:15:27;22.70;99.90
20845;DHT22;10583;49.084;8.646;2023-08-20T00:17:55;22.70;99.90
20845;DHT22;10583;49.084;8.646;2023-08-20T00:20:24;22.60;99.90
20845;DHT22;10583;49.084;8.646;2023-08-20T00:22:52;22.60;99.90
20845;DHT22;10583;49.084;8.646;2023-08-20T00:25:19;22.60;99.90
20845;DHT22;10583;49.084;8.646;2023-08-20T00:27:47;22.60;99.90
20845;DHT22;10583;49.084;8.646;2023-08-20T00:30:14;22.60;99.90
20845;DHT22;10583;49.084;8.646;2023-08-20T00:32:41;22.50;99.90
20845;DHT22;10583;49.084;8.646;2023-08-20T00:35:08;22.50;99.90
20845;DHT22;10583;49.084;8.646;2023-08-20T00:37:36;22.40;99.90
20845;DHT22;10583;49.084;8.646;2023-08-20T00:40:05;22.40;99.90
20845;DHT22;10583;49.084;8.646;2023-08-20T00:42:32;22.40;99.90
20845;DHT22;10583;49.084;8.646;2023-08-20T00:45:00;22.40;99.90
20845;DHT22;10583;49.084;8.646;2023-08-20T00:47:28;22.30;99.90
20845;DHT22;10583;49.084;8.646;2023-08-20T00:49:56;22.30;99.90
20845;DHT22;10583;49.084;8.646;2023-08-20T00:52:23;22.20;99.90
20845;DHT22;10583;49.084;8.646;2023-08-20T00:54:51;22.20;99.90
20845;DHT22;10583;49.084;8.646;2023-08-20T00:57:19;22.10;99.90
20845;DHT22;10583;49.084;8.646;2023-08-20T00:59:47;22.10;99.90
20845;DHT22;10583;49.084;8.646;2023-08-20T01:02:15;22.10;99.90
20845;DHT22;10583;49.084;8.646;2023-08-20T01:04:42;22.10;99.90
20845;DHT22;10583;49.084;8.646;2023-08-20T01:07:18;22.10;99.90
20845;DHT22;10583;49.084;8.646;2023-08-20T01:09:54;22.10;99.90
20845;DHT22;10583;49.084;8.646;2023-08-20T01:12:24;22.10;99.90
20845;DHT22;10583;49.084;8.646;2023-08-20T01:14:52;22.10;99.90
20845;DHT22;10583;49.084;8.646;2023-08-20T01:17:19;22.10;99.90
20845;DHT22;10583;49.084;8.646;2023-08-20T01:19:46;22.10;99.90
20845;DHT22;10583;49.084;8.646;2023-08-20T01:25:28;22.00;99.90
20845;DHT22;10583;49.084;8.646;2023-08-20T01:28:06;22.00;99.90
20845;DHT22;10583;49.084;8.646;2023-08-20T01:30:37;21.80;99.90
20845;DHT22;10583;49.084;8.646;2023-08-20T01:33:05;21.80;99.90
20845;DHT22;10583;49.084;8.646;2023-08-20T01:35:34;21.70;99.90
20845;DHT22;10583;49.084;8.646;2023-08-20T01:38:01;21.70;99.90
20845;DHT22;10583;49.084;8.646;2023-08-20T01:40:28;21.70;99.90
20845;DHT22;10583;49.084;8.646;2023-08-20T01:42:56;21.60;99.90
20845;DHT22;10583;49.084;8.646;2023-08-20T01:45:24;21.60;99.90
20845;DHT22;10583;49.084;8.646;2023-08-20T01:47:53;21.60;99.90
20845;DHT22;10583;49.084;8.646;2023-08-20T01:50:20;21.60;99.90
20845;DHT22;10583;49.084;8.646;2023-08-20T01:52:47;21.50;99.90
20845;DHT22;10583;49.084;8.646;2023-08-20T01:55:15;21.50;99.90
20845;DHT22;10583;49.084;8.646;2023-08-20T01:57:42;21.50;99.90
20845;DHT22;10583;49.084;8.646;2023-08-20T02:00:10;21.50;99.90
20845;DHT22;10583;49.084;8.646;2023-08-20T02:02:38;21.50;99.90
20845;DHT22;10583;49.084;8.646;2023-08-20T02:05:07;21.40;99.90
20845;DHT22;10583;49.084;8.646;2023-08-20T02:07:36;21.40;99.90
20845;DHT22;10583;49.084;8.646;2023-08-20T02:10:03;21.30;99.90
20845;DHT22;10583;49.084;8.646;2023-08-20T02:12:30;21.30;99.90
20845;DHT22;10583;49.084;8.646;2023-08-20T02:14:57;21.30;99.90
20845;DHT22;10583;49.084;8.646;2023-08-20T02:17:25;21.20;99.90
20845;DHT22;10583;49.084;8.646;2023-08-20T02:19:52;21.20;99.90
20845;DHT22;10583;49.084;8.646;2023-08-20T02:22:20;21.10;99.90
20845;DHT22;10583;49.084;8.646;2023-08-20T02:24:47;21.10;99.90
20845;DHT22;10583;49.084;8.646;2023-08-20T02:27:14;21.20;99.90
20845;DHT22;10583;49.084;8.646;2023-08-20T02:29:41;21.10;99.90
20845;DHT22;10583;49.084;8.646;2023-08-20T02:32:08;21.20;99.90
20845;DHT22;10583;49.084;8.646;2023-08-20T02:34:35;21.10;99.90
20845;DHT22;10583;49.084;8.646;2023-08-20T02:37:02;21.10;99.90
20845;DHT22;10583;49.084;8.646;2023-08-20T02:39:31;21.10;99.90
20845;DHT22;10583;49.084;8.646;2023-08-20T02:41:58;21.10;99.90
20845;DHT22;10583;49.084;8.646;2023-08-20T02:44:25;21.10;99.90
20845;DHT22;10583;49.084;8.646;2023-08-20T02:46:52;21.10;99.90
20845;DHT22;10583;49.084;8.646;2023-08-20T02:49:19;21.10;99.90
20845;DHT22;10583;49.084;8.646;2023-08-20T02:51:46;21.10;99.90
20845;DHT22;10583;49.084;8.646;2023-08-20T02:54:14;21.10;99.90
20845;DHT22;10583;49.084;8.646;2023-08-20T02:56:42;21.10;99.90
20845;DHT22;10583;49.084;8.646;2023-08-20T02:59:09;21.00;99.90
20845;DHT22;10583;49.084;8.646;2023-08-20T03:01:36;21.00;99.90
20845;DHT22;10583;49.084;8.646;2023-08-20T03:04:04;20.90;99.90
20845;DHT22;10583;49.084;8.646;2023-08-20T03:06:31;20.90;99.90
20845;DHT22;10583;49.084;8.646;2023-08-20T03:08:58;20.90;99.90
20845;DHT22;10583;49.084;8.646;2023-08-20T03:11:25;20.90;99.90
20845;DHT22;10583;49.084;8.646;2023-08-20T03:13:54;20.80;99.90
20845;DHT22;10583;49.084;8.646;2023-08-20T03:16:21;20.80;99.90
20845;DHT22;10583;49.084;8.646;2023-08-20T03:18:48;20.80;99.90
20845;DHT22;10583;49.084;8.646;2023-08-20T03:21:16;20.80;99.90
20845;DHT22;10583;49.084;8.646;2023-08-20T03:23:43;20.70;99.90
20845;DHT22;10583;49.084;8.646;2023-08-20T03:26:10;20.70;99.90
20845;DHT22;10583;49.084;8.646;2023-08-20T03:28:37;20.70;99.90
20845;DHT22;10583;49.084;8.646;2023-08-20T03:31:06;20.60;99.90
20845;DHT22;10583;49.084;8.646;2023-08-20T03:33:33;20.60;99.90
20845;DHT22;10583;49.084;8.646;2023-08-20T03:36:00;20.60;99.90
20845;DHT22;10583;49.084;8.646;2023-08-20T03:38:27;20.60;99.90
20845;DHT22;10583;49.084;8.646;2023-08-20T03:40:55;20.50;99.90
20845;DHT22;10583;49.084;8.646;2023-08-20T03:43:22;20.50;99.90
20845;DHT22;10583;49.084;8.646;2023-08-20T03:45:50;20.50;99.90
20845;DHT22;10583;49.084;8.646;2023-08-20T03:48:19;20.50;99.90
20845;DHT22;10583;49.084;8.646;2023-08-20T03:50:46;20.50;99.90
20845;DHT22;10583;49.084;8.646;2023-08-20T03:53:13;20.50;99.90
20845;DHT22;10583;49.084;8.646;2023-08-20T03:55:40;20.40;99.90
20845;DHT22;10583;49.084;8.646;2023-08-20T03:58:07;20.40;99.90
20845;DHT22;10583;49.084;8.646;2023-08-20T04:00:35;20.40;99.90
20845;DHT22;10583;49.084;8.646;2023-08-20T04:03:02;20.30;99.90
20845;DHT22;10583;49.084;8.646;2023-08-20T04:05:35;20.30;99.90
20845;DHT22;10583;49.084;8.646;2023-08-20T04:08:03;20.30;99.90
20845;DHT22;10583;49.084;8.646;2023-08-20T04:10:30;20.30;99.90
20845;DHT22;10583;49.084;8.646;2023-08-20T04:12:58;20.20;99.90
20845;DHT22;10583;49.084;8.646;2023-08-20T04:15:25;20.20;99.90
20845;DHT22;10583;49.084;8.646;2023-08-20T04:17:52;20.20;99.90
20845;DHT22;10583;49.084;8.646;2023-08-20T04:20:19;20.10;99.90
20845;DHT22;10583;49.084;8.646;2023-08-20T04:22:48;20.10;99.90
20845;DHT22;10583;49.084;8.646;2023-08-20T04:25:15;20.10;99.90
20845;DHT22;10583;49.084;8.646;2023-08-20T04:27:42;20.20;99.90
20845;DHT22;10583;49.084;8.646;2023-08-20T04:30:10;20.10;99.90
20845;DHT22;10583;49.084;8.646;2023-08-20T04:32:37;19.90;99.90
20845;DHT22;10583;49.084;8.646;2023-08-20T04:35:05;19.90;99.90
20845;DHT22;10583;49.084;8.646;2023-08-20T04:37:32;20.00;99.90
20845;DHT22;10583;49.084;8.646;2023-08-20T04:40:00;19.90;99.90
20845;DHT22;10583;49.084;8.646;2023-08-20T04:42:30;20.00;99.90
20845;DHT22;10583;49.084;8.646;2023-08-20T04:44:57;20.10;99.90
20845;DHT22;10583;49.084;8.646;2023-08-20T04:47:24;20.10;99.90
20845;DHT22;10583;49.084;8.646;2023-08-20T04:49:52;20.10;99.90
20845;DHT22;10583;49.084;8.646;2023-08-20T04:52:19;20.20;99.90
20845;DHT22;10583;49.084;8.646;2023-08-20T04:54:47;20.30;99.90
20845;DHT22;10583;49.084;8.646;2023-08-20T04:57:15;20.30;99.90
20845;DHT22;10583;49.084;8.646;2023-08-20T04:59:42;20.40;99.90
20845;DHT22;10583;49.084;8.646;2023-08-20T05:02:11;20.50;99.90
20845;DHT22;10583;49.084;8.646;2023-08-20T05:04:38;20.50;99.90
20845;DHT22;10583;49.084;8.646;2023-08-20T05:07:05;20.60;99.90
20845;DHT22;10583;49.084;8.646;2023-08-20T05:09:33;20.60;99.90
20845;DHT22;10583;49.084;8.646;2023-08-20T05:12:00;20.70;99.90
20845;DHT22;10583;49.084;8.646;2023-08-20T05:14:28;20.80;99.90
20845;DHT22;10583;49.084;8.646;2023-08-20T05:16:56;20.80;99.90
20845;DHT22;10583;49.084;8.646;2023-08-20T05:19:23;20.90;99.90
20845;DHT22;10583;49.084;8.646;2023-08-20T05:21:50;20.90;99.90
20845;DHT22;10583;49.084;8.646;2023-08-20T05:24:18;20.90;99.90
20845;DHT22;10583;49.084;8.646;2023-08-20T05:26:45;21.00;99.90
20845;DHT22;10583;49.084;8.646;2023-08-20T05:29:12;21.00;99.90
20845;DHT22;10583;49.084;8.646;2023-08-20T05:31:41;21.10;99.90
20845;DHT22;10583;49.084;8.646;2023-08-20T05:34:08;21.20;99.90
20845;DHT22;10583;49.084;8.646;2023-08-20T05:36:35;21.20;99.90
20845;DHT22;10583;49.084;8.646;2023-08-20T05:39:02;21.20;99.90
20845;DHT22;10583;49.084;8.646;2023-08-20T05:41:29;21.20;99.90
20845;DHT22;10583;49.084;8.646;2023-08-20T05:43:56;21.30;99.90
20845;DHT22;10583;49.084;8.646;2023-08-20T05:46:23;21.30;99.90
20845;DHT22;10583;49.084;8.646;2023-08-20T05:48:52;21.40;99.90
20845;DHT22;10583;49.084;8.646;2023-08-20T05:51:19;21.40;99.90
20845;DHT22;10583;49.084;8.646;2023-08-20T05:53:46;21.60;99.90
20845;DHT22;10583;49.084;8.646;2023-08-20T05:56:13;21.60;99.90
20845;DHT22;10583;49.084;8.646;2023-08-20T05:58:40;21.70;99.90
20845;DHT22;10583;49.084;8.646;2023-08-20T06:01:06;21.80;99.90
20845;DHT22;10583;49.084;8.646;2023-08-20T06:03:34;21.90;99.90
20845;DHT22;10583;49.084;8.646;2023-08-20T06:06:02;22.00;99.90
20845;DHT22;10583;49.084;8.646;2023-08-20T06:08:29;22.10;99.90
20845;DHT22;10583;49.084;8.646;2023-08-20T06:10:56;22.10;99.90
20845;DHT22;10583;49.084;8.646;2023-08-20T06:13:23;22.10;99.90
20845;DHT22;10583;49.084;8.646;2023-08-20T06:15:50;22.10;99.90
20845;DHT22;10583;49.084;8.646;2023-08-20T06:18:17;22.10;99.90
20845;DHT22;10583;49.084;8.646;2023-08-20T06:20:44;22.10;99.90
20845;DHT22;10583;49.084;8.646;2023-08-20T06:23:12;22.20;99.90
20845;DHT22;10583;49.084;8.646;2023-08-20T06:25:39;22.20;99.90
20845;DHT22;10583;49.084;8.646;2023-08-20T06:28:08;22.20;99.90
20845;DHT22;10583;49.084;8.646;2023-08-20T06:30:35;22.30;99.90
20845;DHT22;10583;49.084;8.646;2023-08-20T06:33:02;22.40;99.90
20845;DHT22;10583;49.084;8.646;2023-08-20T06:35:29;22.50;99.90
20845;DHT22;10583;49.084;8.646;2023-08-20T06:37:56;22.60;99.90
20845;DHT22;10583;49.084;8.646;2023-08-20T06:40:24;22.80;99.90
20845;DHT22;10583;49.084;8.646;2023-08-20T06:42:51;22.80;99.90
20845;DHT22;10583;49.084;8.646;2023-08-20T06:45:18;22.90;99.90
20845;DHT22;10583;49.084;8.646;2023-08-20T06:47:45;22.90;99.90
20845;DHT22;10583;49.084;8.646;2023-08-20T06:50:12;23.00;99.90
20845;DHT22;10583;49.084;8.646;2023-08-20T06:52:39;23.00;99.90
20845;DHT22;10583;49.084;8.646;2023-08-20T06:55:06;23.20;99.90
20845;DHT22;10583;49.084;8.646;2023-08-20T06:57:35;23.30;99.90
20845;DHT22;10583;49.084;8.646;2023-08-20T07:00:03;23.30;99.90
20845;DHT22;10583;49.084;8.646;2023-08-20T07:02:30;23.50;99.90
20845;DHT22;10583;49.084;8.646;2023-08-20T07:04:57;23.60;99.90
20845;DHT22;10583;49.084;8.646;2023-08-20T07:07:24;23.70;99.90
20845;DHT22;10583;49.084;8.646;2023-08-20T07:09:51;23.80;99.90
20845;DHT22;10583;49.084;8.646;2023-08-20T07:12:18;23.80;99.90
20845;DHT22;10583;49.084;8.646;2023-08-20T07:14:47;24.00;99.90
20845;DHT22;10583;49.084;8.646;2023-08-20T07:17:14;24.40;99.90
20845;DHT22;10583;49.084;8.646;2023-08-20T07:19:41;24.80;99.90
20845;DHT22;10583;49.084;8.646;2023-08-20T07:22:08;25.10;99.90
20845;DHT22;10583;49.084;8.646;2023-08-20T07:24:35;25.50;99.90
20845;DHT22;10583;49.084;8.646;2023-08-20T07:27:02;25.80;99.90
20845;DHT22;10583;49.084;8.646;2023-08-20T07:29:36;26.10;99.90
20845;DHT22;10583;49.084;8.646;2023-08-20T07:32:04;26.50;99.90
20845;DHT22;10583;49.084;8.646;2023-08-20T07:34:31;26.80;99.90
20845;DHT22;10583;49.084;8.646;2023-08-20T07:36:59;27.00;99.90
20845;DHT22;10583;49.084;8.646;2023-08-20T07:39:27;27.10;99.90
20845;DHT22;10583;49.084;8.646;2023-08-20T07:41:53;26.80;99.90
20845;DHT22;10583;49.084;8.646;2023-08-20T07:44:25;26.70;99.90
20845;DHT22;10583;49.084;8.646;2023-08-20T07:46:54;27.10;99.90
20845;DHT22;10583;49.084;8.646;2023-08-20T07:49:22;27.50;99.90
20845;DHT22;10583;49.084;8.646;2023-08-20T07:51:49;27.90;99.90
20845;DHT22;10583;49.084;8.646;2023-08-20T07:54:17;28.10;99.90
20845;DHT22;10583;49.084;8.646;2023-08-20T07:56:44;28.20;99.90
20845;DHT22;10583;49.084;8.646;2023-08-20T07:59:11;28.20;99.90
20845;DHT22;10583;49.084;8.646;2023-08-20T08:01:37;28.20;99.90
20845;DHT22;10583;49.084;8.646;2023-08-20T08:04:04;28.00;99.90
20845;DHT22;10583;49.084;8.646;2023-08-20T08:06:33;28.00;99.90
20845;DHT22;10583;49.084;8.646;2023-08-20T08:09:17;28.20;99.90
20845;DHT22;10583;49.084;8.646;2023-08-20T08:11:44;28.60;99.90
20845;DHT22;10583;49.084;8.646;2023-08-20T08:14:11;28.90;99.90
20845;DHT22;10583;49.084;8.646;2023-08-20T08:16:38;29.30;99.90
20845;DHT22;10583;49.084;8.646;2023-08-20T08:19:05;29.50;99.90
20845;DHT22;10583;49.084;8.646;2023-08-20T08:21:33;29.40;99.90
20845;DHT22;10583;49.084;8.646;2023-08-20T08:24:00;29.20;99.90
20845;DHT22;10583;49.084;8.646;2023-08-20T08:26:27;29.10;99.90
20845;DHT22;10583;49.084;8.646;2023-08-20T08:28:54;29.20;99.90
20845;DHT22;10583;49.084;8.646;2023-08-20T08:31:21;29.30;99.90
20845;DHT22;10583;49.084;8.646;2023-08-20T08:33:47;29.30;99.90
20845;DHT22;10583;49.084;8.646;2023-08-20T08:36:14;29.10;99.90
20845;DHT22;10583;49.084;8.646;2023-08-20T08:38:44;29.20;99.90
20845;DHT22;10583;49.084;8.646;2023-08-20T08:41:11;29.70;99.90
20845;DHT22;10583;49.084;8.646;2023-08-20T08:43:38;30.10;99.90
20845;DHT22;10583;49.084;8.646;2023-08-20T08:46:07;30.10;99.90
20845;DHT22;10583;49.084;8.646;2023-08-20T08:48:34;30.40;99.90
20845;DHT22;10583;49.084;8.646;2023-08-20T08:51:02;30.50;99.90
20845;DHT22;10583;49.084;8.646;2023-08-20T08:53:30;30.50;99.90
20845;DHT22;10583;49.084;8.646;2023-08-20T08:56:00;30.70;99.90
20845;DHT22;10583;49.084;8.646;2023-08-20T08:58:28;31.00;99.90
20845;DHT22;10583;49.084;8.646;2023-08-20T09:00:55;30.90;99.90
20845;DHT22;10583;49.084;8.646;2023-08-20T09:03:22;31.10;99.90
20845;DHT22;10583;49.084;8.646;2023-08-20T09:05:50;31.30;99.90
20845;DHT22;10583;49.084;8.646;2023-08-20T09:08:20;31.50;99.90
20845;DHT22;10583;49.084;8.646;2023-08-20T09:10:50;31.80;99.90
20845;DHT22;10583;49.084;8.646;2023-08-20T09:13:22;31.80;99.90
20845;DHT22;10583;49.084;8.646;2023-08-20T09:15:51;31.90;99.90
20845;DHT22;10583;49.084;8.646;2023-08-20T09:18:18;32.10;99.90
20845;DHT22;10583;49.084;8.646;2023-08-20T09:20:47;32.00;99.90
20845;DHT22;10583;49.084;8.646;2023-08-20T09:23:14;31.90;99.90
20845;DHT22;10583;49.084;8.646;2023-08-20T09:25:42;31.30;99.90
20845;DHT22;10583;49.084;8.646;2023-08-20T09:28:09;31.30;99.90
20845;DHT22;10583;49.084;8.646;2023-08-20T09:30:37;31.80;99.90
20845;DHT22;10583;49.084;8.646;2023-08-20T09:33:07;32.10;99.90
20845;DHT22;10583;49.084;8.646;2023-08-20T09:35:34;32.30;99.90
20845;DHT22;10583;49.084;8.646;2023-08-20T09:38:02;32.60;99.90
20845;DHT22;10583;49.084;8.646;2023-08-20T09:40:30;32.90;99.90
20845;DHT22;10583;49.084;8.646;2023-08-20T09:42:57;33.00;99.90
20845;DHT22;10583;49.084;8.646;2023-08-20T09:45:25;33.00;99.90
20845;DHT22;10583;49.084;8.646;2023-08-20T09:47:55;33.20;99.90
20845;DHT22;10583;49.084;8.646;2023-08-20T09:50:23;33.30;99.90
20845;DHT22;10583;49.084;8.646;2023-08-20T09:52:56;33.70;99.90
20845;DHT22;10583;49.084;8.646;2023-08-20T09:55:30;34.00;99.90
20845;DHT22;10583;49.084;8.646;2023-08-20T09:57:59;34.00;99.90
20845;DHT22;10583;49.084;8.646;2023-08-20T10:00:28;33.90;99.90
20845;DHT22;10583;49.084;8.646;2023-08-20T10:02:56;33.20;99.90
20845;DHT22;10583;49.084;8.646;2023-08-20T10:05:24;32.70;99.90
20845;DHT22;10583;49.084;8.646;2023-08-20T10:07:54;33.00;99.90
20845;DHT22;10583;49.084;8.646;2023-08-20T10:10:22;33.30;99.90
20845;DHT22;10583;49.084;8.646;2023-08-20T10:12:48;33.50;99.90
20845;DHT22;10583;49.084;8.646;2023-08-20T10:15:15;33.90;99.90
20845;DHT22;10583;49.084;8.646;2023-08-20T10:17:44;33.50;99.90
20845;DHT22;10583;49.084;8.646;2023-08-20T10:20:14;33.30;99.90
20845;DHT22;10583;49.084;8.646;2023-08-20T10:22:43;33.50;99.90
20845;DHT22;10583;49.084;8.646;2023-08-20T10:25:11;33.60;99.90
20845;DHT22;10583;49.084;8.646;2023-08-20T10:27:39;33.00;99.90
20845;DHT22;10583;49.084;8.646;2023-08-20T10:30:08;32.80;99.90
20845;DHT22;10583;49.084;8.646;2023-08-20T10:32:47;33.30;99.90
20845;DHT22;10583;49.084;8.646;2023-08-20T10:35:23;33.50;99.90
20845;DHT22;10583;49.084;8.646;2023-08-20T10:38:03;33.90;99.90
20845;DHT22;10583;49.084;8.646;2023-08-20T10:40:48;34.20;99.90
20845;DHT22;10583;49.084;8.646;2023-08-20T10:43:29;34.40;99.90
20845;DHT22;10583;49.084;8.646;2023-08-20T10:46:06;34.30;99.90
20845;DHT22;10583;49.084;8.646;2023-08-20T10:48:34;34.60;99.90
20845;DHT22;10583;49.084;8.646;2023-08-20T10:51:10;34.90;99.90
20845;DHT22;10583;49.084;8.646;2023-08-20T10:53:38;35.00;99.90
20845;DHT22;10583;49.084;8.646;2023-08-20T10:56:13;34.90;99.90
20845;DHT22;10583;49.084;8.646;2023-08-20T10:58:46;34.10;99.90
20845;DHT22;10583;49.084;8.646;2023-08-20T11:01:14;34.40;99.90
20845;DHT22;10583;49.084;8.646;2023-08-20T11:03:42;34.60;99.90
20845;DHT22;10583;49.084;8.646;2023-08-20T11:06:10;34.70;99.90
20845;DHT22;10583;49.084;8.646;2023-08-20T11:08:38;34.70;99.90
20845;DHT22;10583;49.084;8.646;2023-08-20T11:11:05;34.90;99.90
20845;DHT22;10583;49.084;8.646;2023-08-20T11:13:33;35.10;99.90
20845;DHT22;10583;49.084;8.646;2023-08-20T11:16:01;35.20;99.90
20845;DHT22;10583;49.084;8.646;2023-08-20T11:18:28;35.40;99.90
20845;DHT22;10583;49.084;8.646;2023-08-20T11:20:57;35.60;99.90
20845;DHT22;10583;49.084;8.646;2023-08-20T11:23:25;35.60;99.90
20845;DHT22;10583;49.084;8.646;2023-08-20T11:25:52;35.10;99.90
20845;DHT22;10583;49.084;8.646;2023-08-20T11:28:20;35.40;99.90
20845;DHT22;10583;49.084;8.646;2023-08-20T11:30:47;35.80;99.90
20845;DHT22;10583;49.084;8.646;2023-08-20T11:33:14;35.90;99.90
20845;DHT22;10583;49.084;8.646;2023-08-20T11:35:41;35.80;99.90
20845;DHT22;10583;49.084;8.646;2023-08-20T11:38:09;35.80;99.90
20845;DHT22;10583;49.084;8.646;2023-08-20T11:40:37;36.00;99.90
20845;DHT22;10583;49.084;8.646;2023-08-20T11:43:04;36.00;99.90
20845;DHT22;10583;49.084;8.646;2023-08-20T11:45:31;36.10;99.90
20845;DHT22;10583;49.084;8.646;2023-08-20T11:47:58;36.00;99.90
20845;DHT22;10583;49.084;8.646;2023-08-20T11:50:26;35.90;99.90
20845;DHT22;10583;49.084;8.646;2023-08-20T11:52:53;35.90;99.90
20845;DHT22;10583;49.084;8.646;2023-08-20T11:55:23;35.80;99.90
20845;DHT22;10583;49.084;8.646;2023-08-20T11:57:52;36.00;99.90
20845;DHT22;10583;49.084;8.646;2023-08-20T12:00:26;36.20;99.90
20845;DHT22;10583;49.084;8.646;2023-08-20T12:02:53;36.20;99.90
20845;DHT22;10583;49.084;8.646;2023-08-20T12:05:21;36.50;99.90
20845;DHT22;10583;49.084;8.646;2023-08-20T12:07:55;36.80;99.90
20845;DHT22;10583;49.084;8.646;2023-08-20T12:10:23;36.90;99.90
20845;DHT22;10583;49.084;8.646;2023-08-20T12:12:51;37.00;99.70
20845;DHT22;10583;49.084;8.646;2023-08-20T12:15:19;36.80;99.70
20845;DHT22;10583;49.084;8.646;2023-08-20T12:17:58;36.40;99.00
20845;DHT22;10583;49.084;8.646;2023-08-20T12:20:27;35.80;99.90
20845;DHT22;10583;49.084;8.646;2023-08-20T12:22:54;35.90;99.90
20845;DHT22;10583;49.084;8.646;2023-08-20T12:25:21;36.20;99.90
20845;DHT22;10583;49.084;8.646;2023-08-20T12:27:48;36.40;99.90
20845;DHT22;10583;49.084;8.646;2023-08-20T12:47:23;36.50;99.90
20845;DHT22;10583;49.084;8.646;2023-08-20T12:49:50;36.80;98.50
20845;DHT22;10583;49.084;8.646;2023-08-20T12:52:16;36.60;98.90
20845;DHT22;10583;49.084;8.646;2023-08-20T12:54:43;36.80;97.90
20845;DHT22;10583;49.084;8.646;2023-08-20T12:57:10;36.70;97.90
20845;DHT22;10583;49.084;8.646;2023-08-20T12:59:37;36.70;98.50
20845;DHT22;10583;49.084;8.646;2023-08-20T13:02:04;36.60;98.40
20845;DHT22;10583;49.084;8.646;2023-08-20T13:04:34;36.60;97.90
20845;DHT22;10583;49.084;8.646;2023-08-20T13:07:01;36.50;98.80
20845;DHT22;10583;49.084;8.646;2023-08-20T13:09:28;36.40;98.50
20845;DHT22;10583;49.084;8.646;2023-08-20T13:11:57;36.50;99.60
20845;DHT22;10583;49.084;8.646;2023-08-20T13:14:24;36.90;99.40
20845;DHT22;10583;49.084;8.646;2023-08-20T13:16:52;37.00;98.30
20845;DHT22;10583;49.084;8.646;2023-08-20T13:19:19;36.70;99.20
20845;DHT22;10583;49.084;8.646;2023-08-20T13:21:47;36.50;98.80
20845;DHT22;10583;49.084;8.646;2023-08-20T13:24:13;36.10;98.70
20845;DHT22;10583;49.084;8.646;2023-08-20T13:26:40;36.10;99.00
20845;DHT22;10583;49.084;8.646;2023-08-20T13:29:07;36.20;99.80
20845;DHT22;10583;49.084;8.646;2023-08-20T13:31:33;36.40;99.60
20845;DHT22;10583;49.084;8.646;2023-08-20T13:34:01;36.40;99.90
20845;DHT22;10583;49.084;8.646;2023-08-20T13:36:28;36.30;98.40
20845;DHT22;10583;49.084;8.646;2023-08-20T13:38:57;36.50;98.50
20845;DHT22;10583;49.084;8.646;2023-08-20T13:41:24;36.30;99.60
20845;DHT22;10583;49.084;8.646;2023-08-20T13:43:51;36.00;97.90
20845;DHT22;10583;49.084;8.646;2023-08-20T13:46:19;36.10;98.20
20845;DHT22;10583;49.084;8.646;2023-08-20T13:48:46;36.00;97.50
20845;DHT22;10583;49.084;8.646;2023-08-20T13:51:14;35.70;98.60
20845;DHT22;10583;49.084;8.646;2023-08-20T13:53:40;35.50;98.80
20845;DHT22;10583;49.084;8.646;2023-08-20T13:56:09;35.30;98.30
20845;DHT22;10583;49.084;8.646;2023-08-20T13:58:35;34.90;99.10
20845;DHT22;10583;49.084;8.646;2023-08-20T14:01:02;34.70;99.10
20845;DHT22;10583;49.084;8.646;2023-08-20T14:03:29;34.60;99.70
20845;DHT22;10583;49.084;8.646;2023-08-20T14:05:56;34.50;98.30
20845;DHT22;10583;49.084;8.646;2023-08-20T14:08:23;34.60;99.40
20845;DHT22;10583;49.084;8.646;2023-08-20T14:10:50;34.50;98.80
20845;DHT22;10583;49.084;8.646;2023-08-20T14:13:18;34.40;98.80
20845;DHT22;10583;49.084;8.646;2023-08-20T14:15:45;34.40;99.90
20845;DHT22;10583;49.084;8.646;2023-08-20T14:18:11;34.40;98.00
20845;DHT22;10583;49.084;8.646;2023-08-20T14:20:38;34.40;98.70
20845;DHT22;10583;49.084;8.646;2023-08-20T14:23:05;34.20;97.70
20845;DHT22;10583;49.084;8.646;2023-08-20T14:25:32;34.00;97.80
20845;DHT22;10583;49.084;8.646;2023-08-20T14:27:59;34.00;97.60
20845;DHT22;10583;49.084;8.646;2023-08-20T14:30:27;33.90;97.50
20845;DHT22;10583;49.084;8.646;2023-08-20T14:32:53;33.90;97.80
20845;DHT22;10583;49.084;8.646;2023-08-20T14:35:20;33.80;99.30
20845;DHT22;10583;49.084;8.646;2023-08-20T14:37:47;33.80;99.20
20845;DHT22;10583;49.084;8.646;2023-08-20T14:40:13;33.80;98.20
20845;DHT22;10583;49.084;8.646;2023-08-20T14:42:41;33.70;98.50
20845;DHT22;10583;49.084;8.646;2023-08-20T14:45:08;33.70;98.30
20845;DHT22;10583;49.084;8.646;2023-08-20T14:47:37;33.50;97.30
20845;DHT22;10583;49.084;8.646;2023-08-20T14:50:04;33.50;97.90
20845;DHT22;10583;49.084;8.646;2023-08-20T14:52:31;33.40;97.20
20845;DHT22;10583;49.084;8.646;2023-08-20T14:54:58;33.30;97.50
20845;DHT22;10583;49.084;8.646;2023-08-20T14:57:25;33.20;97.90
20845;DHT22;10583;49.084;8.646;2023-08-20T14:59:52;33.10;98.50
20845;DHT22;10583;49.084;8.646;2023-08-20T15:02:19;33.10;99.10
20845;DHT22;10583;49.084;8.646;2023-08-20T15:04:47;33.20;99.40
20845;DHT22;10583;49.084;8.646;2023-08-20T15:07:13;33.20;99.90
20845;DHT22;10583;49.084;8.646;2023-08-20T15:09:40;33.20;99.70
20845;DHT22;10583;49.084;8.646;2023-08-20T15:12:07;33.10;99.90
20845;DHT22;10583;49.084;8.646;2023-08-20T15:14:34;33.10;99.90
20845;DHT22;10583;49.084;8.646;2023-08-20T15:17:01;33.00;99.90
20845;DHT22;10583;49.084;8.646;2023-08-20T15:19:28;32.90;99.90
20845;DHT22;10583;49.084;8.646;2023-08-20T15:21:56;33.00;99.90
20845;DHT22;10583;49.084;8.646;2023-08-20T15:24:22;32.90;99.90
20845;DHT22;10583;49.084;8.646;2023-08-20T15:26:49;32.80;99.90
20845;DHT22;10583;49.084;8.646;2023-08-20T15:29:16;32.80;99.90
20845;DHT22;10583;49.084;8.646;2023-08-20T15:31:43;32.80;99.90
20845;DHT22;10583;49.084;8.646;2023-08-20T15:34:10;32.70;99.90
20845;DHT22;10583;49.084;8.646;2023-08-20T15:36:36;32.70;99.90
20845;DHT22;10583;49.084;8.646;2023-08-20T15:39:04;32.60;99.50
20845;DHT22;10583;49.084;8.646;2023-08-20T15:41:31;32.50;99.80
20845;DHT22;10583;49.084;8.646;2023-08-20T15:43:58;32.50;99.90
20845;DHT22;10583;49.084;8.646;2023-08-20T15:46:25;32.50;99.90
20845;DHT22;10583;49.084;8.646;2023-08-20T15:48:52;32.40;99.90
20845;DHT22;10583;49.084;8.646;2023-08-20T15:51:19;32.50;99.90
20845;DHT22;10583;49.084;8.646;2023-08-20T15:53:46;32.40;99.90